Terminal Aerodrome Forecast
Issued by NWS Wilmington, NC

Home | Current Version | Previous Version | Text Only | Print | Product List | Glossary On
Versions: 1 2 3 4 5 6 7 8 9 10 11 12 13 14 15 16 17 18 19 20 21 22
000
FTUS42 KILM 240008 CCE
TAFFLO
TAF COR
KFLO 240008Z 2400/2424 VRB12G25KT 3SM TSRA SCT015 BKN025CB OVC060
     FM240130 22007KT P6SM VCSH SCT025 BKN045 OVC150
     FM240500 22004KT P6SM BKN250
     FM241400 23008KT P6SM VCTS FEW030CB BKN050
     FM241800 24009KT 6SM -TSRA SCT020 BKN035CB PROB30 2418/2424
      VRB20G30KT 3SM TSRA SCT015 BKN025CB OVC040=

USA.gov is the U.S. government's official web portal to all federal, state and local government web resources and services.